createdAt,value
2022-12-04T00:00:11.888Z,101825.59
2022-12-04T00:02:35.527Z,101819.56
2022-12-04T00:04:59.239Z,101833.16
2022-12-04T00:07:22.814Z,101831.84
2022-12-04T00:09:46.353Z,101826.03
2022-12-04T00:12:11.301Z,101833.00
2022-12-04T00:14:49.098Z,101830.75
2022-12-04T00:17:18.513Z,101832.91
2022-12-04T00:19:42.082Z,101839.28
2022-12-04T00:22:05.949Z,101833.03
2022-12-04T00:24:29.483Z,101831.09
2022-12-04T00:26:53.048Z,101829.69
2022-12-04T00:29:18.044Z,101826.13
2022-12-04T00:31:42.128Z,101819.41
2022-12-04T00:34:08.018Z,101820.19
2022-12-04T00:36:32.367Z,101816.88
2022-12-04T00:38:56.386Z,101819.66
2022-12-04T00:41:22.493Z,101816.81
2022-12-04T00:43:46.926Z,101825.75
2022-12-04T00:46:11.952Z,101816.66
2022-12-04T00:48:35.622Z,101813.16
2022-12-04T00:51:04.129Z,101817.50
2022-12-04T00:53:27.679Z,101814.78
2022-12-04T00:55:51.228Z,101812.00
2022-12-04T00:58:15.134Z,101818.09
2022-12-04T01:00:41.014Z,101811.91
2022-12-04T01:03:07.037Z,101822.72
2022-12-04T01:05:30.861Z,101815.00
2022-12-04T01:07:55.258Z,101811.28
2022-12-04T01:10:19.008Z,101816.44
2022-12-04T01:12:42.541Z,101818.09
2022-12-04T01:15:07.639Z,101809.94
2022-12-04T01:17:31.216Z,101822.38
2022-12-04T01:19:56.307Z,101813.25
2022-12-04T01:22:19.998Z,101818.94
2022-12-04T01:24:43.633Z,101817.19
2022-12-04T01:27:07.265Z,101815.81
2022-12-04T01:29:30.896Z,101820.31
2022-12-04T01:31:54.506Z,101817.19
2022-12-04T01:34:18.174Z,101809.66
2022-12-04T01:36:43.108Z,101809.09
2022-12-04T01:39:06.723Z,101810.16
2022-12-04T01:41:33.139Z,101807.25
2022-12-04T01:44:16.485Z,101806.28
2022-12-04T01:46:40.600Z,101807.13
2022-12-04T01:49:06.133Z,101812.75
2022-12-04T01:51:35.007Z,101806.94
2022-12-04T01:54:03.886Z,101810.00
2022-12-04T01:56:33.461Z,101797.69
2022-12-04T01:59:00.328Z,101804.06
2022-12-04T02:01:24.464Z,101797.78
2022-12-04T02:03:48.418Z,101795.19
2022-12-04T02:06:12.217Z,101791.75
2022-12-04T02:08:37.384Z,101788.25
2022-12-04T02:11:15.099Z,101791.22
2022-12-04T02:13:48.739Z,101781.78
2022-12-04T02:16:21.536Z,101792.25
2022-12-04T02:18:58.119Z,101783.47
2022-12-04T02:21:28.772Z,101788.25
2022-12-04T02:24:15.437Z,101786.34
2022-12-04T02:26:48.883Z,101779.19
2022-12-04T02:29:25.050Z,101782.69
2022-12-04T02:31:55.245Z,101772.03
2022-12-04T02:34:26.964Z,101783.28
2022-12-04T02:36:56.610Z,101783.53
2022-12-04T02:39:27.532Z,101779.34
2022-12-04T02:41:58.663Z,101778.53
2022-12-04T02:44:28.046Z,101776.75
2022-12-04T02:46:57.309Z,101767.00
2022-12-04T02:49:26.879Z,101764.03
2022-12-04T02:51:51.932Z,101767.75
2022-12-04T02:54:24.732Z,101759.53
2022-12-04T02:56:51.659Z,101756.06
2022-12-04T02:59:24.644Z,101765.28
2022-12-04T03:01:53.243Z,101753.47
2022-12-04T03:04:21.348Z,101754.69
2022-12-04T03:06:48.838Z,101757.13
2022-12-04T03:09:18.780Z,101748.34
2022-12-04T03:11:46.331Z,101754.97
2022-12-04T03:14:16.064Z,101757.75
2022-12-04T03:16:42.898Z,101758.41
2022-12-04T03:19:12.576Z,101756.59
2022-12-04T03:21:41.281Z,101753.28
2022-12-04T03:24:14.137Z,101745.50
2022-12-04T03:26:42.599Z,101743.09
2022-12-04T03:29:11.192Z,101743.03
2022-12-04T03:31:52.583Z,101736.34
2022-12-04T03:34:25.349Z,101740.34
2022-12-04T03:36:55.127Z,101737.47
2022-12-04T03:39:23.175Z,101739.47
2022-12-04T03:41:58.196Z,101745.31
2022-12-04T03:44:27.447Z,101742.72
2022-12-04T03:46:57.129Z,101752.44
2022-12-04T03:49:30.571Z,101756.72
2022-12-04T03:52:00.735Z,101753.19
2022-12-04T03:54:31.493Z,101755.81
2022-12-04T03:57:00.068Z,101754.69
2022-12-04T03:59:28.670Z,101743.34
2022-12-04T04:01:55.330Z,101745.97
2022-12-04T04:04:25.616Z,101743.72
2022-12-04T04:06:55.447Z,101752.31
2022-12-04T04:09:26.877Z,101746.34
2022-12-04T04:11:55.527Z,101747.53
2022-12-04T04:14:42.524Z,101742.28
2022-12-04T04:17:34.901Z,101737.00
2022-12-04T04:20:27.027Z,101732.13
2022-12-04T04:23:11.421Z,101730.63
2022-12-04T04:25:40.413Z,101730.13
2022-12-04T04:28:03.901Z,101727.47
2022-12-04T04:30:30.160Z,101730.88
2022-12-04T04:33:01.466Z,101724.00
2022-12-04T04:35:32.728Z,101721.69
2022-12-04T04:38:04.322Z,101719.59
2022-12-04T04:40:36.989Z,101720.03
2022-12-04T04:43:08.647Z,101722.81
2022-12-04T04:45:38.826Z,101716.22
2022-12-04T04:48:09.178Z,101709.63
2022-12-04T04:50:34.705Z,101709.13
2022-12-04T04:53:04.910Z,101715.84
2022-12-04T04:55:34.374Z,101718.44
2022-12-04T04:58:08.770Z,101714.22
2022-12-04T05:00:32.505Z,101719.28
2022-12-04T05:02:56.072Z,101717.97
2022-12-04T05:05:21.102Z,101721.69
2022-12-04T05:07:44.782Z,101724.09
2022-12-04T05:10:10.891Z,101735.53
2022-12-04T05:12:34.420Z,101730.13
2022-12-04T05:14:57.963Z,101732.94
2022-12-04T05:17:21.470Z,101739.56
2022-12-04T05:19:57.898Z,101726.09
2022-12-04T05:22:27.135Z,101730.00
2022-12-04T05:24:50.861Z,101740.66
2022-12-04T05:27:14.529Z,101737.91
2022-12-04T05:29:38.273Z,101740.78
2022-12-04T05:32:01.966Z,101727.97
2022-12-04T05:34:25.467Z,101731.41
2022-12-04T05:36:49.050Z,101740.91
2022-12-04T05:39:14.735Z,101734.81
2022-12-04T05:41:38.343Z,101731.69
2022-12-04T05:44:01.899Z,101722.69
2022-12-04T05:46:25.510Z,101719.19
2022-12-04T05:48:49.041Z,101729.97
2022-12-04T05:51:13.033Z,101722.91
2022-12-04T05:53:36.796Z,101728.31
2022-12-04T05:56:04.035Z,101728.56
2022-12-04T05:58:28.071Z,101724.59
2022-12-04T06:00:51.971Z,101730.69
2022-12-04T06:03:15.550Z,101726.22
2022-12-04T06:05:39.228Z,101724.19
2022-12-04T06:08:02.810Z,101723.59
2022-12-04T06:10:26.405Z,101712.44
2022-12-04T06:12:51.336Z,101716.97
2022-12-04T06:15:14.963Z,101724.00
2022-12-04T06:17:38.470Z,101714.81
2022-12-04T06:20:06.546Z,101710.69
2022-12-04T06:22:33.271Z,101725.63
2022-12-04T06:24:56.787Z,101705.16
2022-12-04T06:27:28.474Z,101713.16
2022-12-04T06:29:54.230Z,101712.44
2022-12-04T06:32:21.409Z,101717.84
2022-12-04T06:34:45.632Z,101723.75
2022-12-04T06:37:09.491Z,101724.47
2022-12-04T06:39:33.264Z,101730.19
2022-12-04T06:41:56.813Z,101717.50
2022-12-04T06:44:20.415Z,101721.84
2022-12-04T06:46:47.315Z,101730.38
2022-12-04T06:49:12.037Z,101734.81
2022-12-04T06:51:38.295Z,101733.19
2022-12-04T06:54:02.799Z,101735.25
2022-12-04T06:56:28.621Z,101725.91
2022-12-04T06:58:55.486Z,101727.34
2022-12-04T07:01:22.270Z,101722.84
2022-12-04T07:03:51.660Z,101719.28
2022-12-04T07:06:17.807Z,101729.03
2022-12-04T07:08:41.490Z,101721.53
2022-12-04T07:11:05.063Z,101728.50
2022-12-04T07:13:28.621Z,101727.31
2022-12-04T07:15:52.456Z,101722.97
2022-12-04T07:18:16.069Z,101722.81
2022-12-04T07:20:43.293Z,101727.41
2022-12-04T07:23:07.540Z,101721.88
2022-12-04T07:25:31.393Z,101725.66
2022-12-04T07:27:55.044Z,101730.84
2022-12-04T07:30:19.031Z,101732.78
2022-12-04T07:32:42.657Z,101725.91
2022-12-04T07:35:07.237Z,101729.28
2022-12-04T07:37:32.369Z,101734.31
2022-12-04T07:39:56.148Z,101732.31
2022-12-04T07:42:24.086Z,101735.22
2022-12-04T07:44:48.121Z,101734.97
2022-12-04T07:47:11.735Z,101731.13
2022-12-04T07:49:35.437Z,101742.84
2022-12-04T07:51:59.016Z,101738.41
2022-12-04T07:54:23.885Z,101741.91
2022-12-04T07:56:47.471Z,101741.03
2022-12-04T07:59:11.007Z,101739.31
2022-12-04T08:01:34.868Z,101741.34
2022-12-04T08:04:00.495Z,101741.94
2022-12-04T08:06:26.364Z,101747.84
2022-12-04T08:08:50.496Z,101741.19
2022-12-04T08:11:18.191Z,101749.78
2022-12-04T08:13:41.858Z,101748.75
2022-12-04T08:16:07.293Z,101746.03
2022-12-04T08:18:30.888Z,101744.34
2022-12-04T08:20:54.457Z,101754.75
2022-12-04T08:23:17.966Z,101753.47
2022-12-04T08:25:42.146Z,101757.41
2022-12-04T08:28:07.361Z,101753.59
2022-12-04T08:30:31.081Z,101746.91
2022-12-04T08:32:54.629Z,101750.75
2022-12-04T08:35:18.417Z,101751.72
2022-12-04T08:37:41.996Z,101749.78
2022-12-04T08:40:06.726Z,101747.28
2022-12-04T08:42:30.222Z,101752.50
2022-12-04T08:44:55.239Z,101749.47
2022-12-04T08:47:18.751Z,101748.47
2022-12-04T08:49:42.360Z,101757.34
2022-12-04T08:52:06.418Z,101747.59
2022-12-04T08:54:35.788Z,101740.84
2022-12-04T08:56:59.694Z,101743.19
2022-12-04T08:59:23.598Z,101749.41
2022-12-04T09:01:51.125Z,101752.94
2022-12-04T09:04:14.852Z,101754.75
2022-12-04T09:06:38.400Z,101745.13
2022-12-04T09:09:01.994Z,101745.28
2022-12-04T09:11:28.302Z,101743.25
2022-12-04T09:13:52.496Z,101745.91
2022-12-04T09:16:19.282Z,101737.69
2022-12-04T09:18:44.366Z,101739.31
2022-12-04T09:21:11.423Z,101743.38
2022-12-04T09:23:36.733Z,101742.16
2022-12-04T09:26:00.486Z,101755.66
2022-12-04T09:28:24.144Z,101754.69
2022-12-04T09:30:57.521Z,101751.00
2022-12-04T09:33:21.131Z,101757.97
2022-12-04T09:35:46.046Z,101745.63
2022-12-04T09:38:09.619Z,101747.91
2022-12-04T09:40:42.965Z,101736.91
2022-12-04T09:43:19.705Z,101726.00
2022-12-04T09:45:51.523Z,101726.19
2022-12-04T09:48:19.751Z,101729.81
2022-12-04T09:50:46.747Z,101724.72
2022-12-04T09:53:15.364Z,101720.47
2022-12-04T09:55:45.670Z,101722.81
2022-12-04T09:58:15.433Z,101722.63
2022-12-04T10:00:46.510Z,101720.41
2022-12-04T10:03:17.521Z,101722.56
2022-12-04T10:05:56.181Z,101724.63
2022-12-04T10:08:25.033Z,101718.44
2022-12-04T10:10:58.184Z,101710.56
2022-12-04T10:13:44.607Z,101700.06
2022-12-04T10:16:17.889Z,101706.16
2022-12-04T10:18:50.165Z,101705.31
2022-12-04T10:21:43.605Z,101699.28
2022-12-04T10:24:28.840Z,101694.25
2022-12-04T10:26:56.244Z,101697.53
2022-12-04T10:29:24.141Z,101693.34
2022-12-04T10:31:50.929Z,101697.75
2022-12-04T10:34:20.225Z,101693.75
2022-12-04T10:36:52.220Z,101689.72
2022-12-04T10:39:21.667Z,101686.16
2022-12-04T10:41:52.697Z,101684.84
2022-12-04T10:44:18.425Z,101685.50
2022-12-04T10:46:46.030Z,101685.13
2022-12-04T10:49:21.415Z,101687.13
2022-12-04T10:51:47.466Z,101681.47
2022-12-04T10:54:21.656Z,101688.19
2022-12-04T10:56:53.749Z,101680.00
2022-12-04T10:59:17.626Z,101680.66
2022-12-04T11:01:41.222Z,101677.03
2022-12-04T11:04:10.185Z,101679.09
2022-12-04T11:06:34.443Z,101678.34
2022-12-04T11:09:00.804Z,101674.03
2022-12-04T11:11:30.911Z,101670.94
2022-12-04T11:14:04.747Z,101668.13
2022-12-04T11:16:38.004Z,101662.09
2022-12-04T11:19:01.714Z,101661.78
2022-12-04T11:21:30.940Z,101658.66
2022-12-04T11:23:55.801Z,101651.88
2022-12-04T11:26:33.068Z,101655.88
2022-12-04T11:28:59.065Z,101661.19
2022-12-04T11:31:24.287Z,101656.44
2022-12-04T11:33:53.508Z,101664.69
2022-12-04T11:36:25.762Z,101658.88
2022-12-04T11:38:50.324Z,101652.72
2022-12-04T11:41:26.920Z,101651.22
2022-12-04T11:43:54.133Z,101644.13
2022-12-04T11:46:24.625Z,101641.94
2022-12-04T11:48:48.160Z,101641.38
2022-12-04T11:51:23.871Z,101640.41
2022-12-04T11:53:55.048Z,101651.31
2022-12-04T11:56:31.013Z,101653.91
2022-12-04T11:59:22.278Z,101652.00
2022-12-04T12:01:56.515Z,101650.66
2022-12-04T12:04:56.419Z,101646.03
2022-12-04T12:07:35.683Z,101647.09
2022-12-04T12:10:04.917Z,101647.47
2022-12-04T12:12:43.274Z,101642.78
2022-12-04T12:15:19.341Z,101640.63
2022-12-04T12:17:50.687Z,101639.50
2022-12-04T12:20:21.135Z,101642.97
2022-12-04T12:23:18.171Z,101637.69
2022-12-04T12:25:52.532Z,101638.00
2022-12-04T12:28:37.029Z,101632.28
2022-12-04T12:31:20.814Z,101632.59
2022-12-04T12:33:50.683Z,101626.09
2022-12-04T12:36:16.570Z,101623.03
2022-12-04T12:38:47.104Z,101618.06
2022-12-04T12:41:15.597Z,101618.06
2022-12-04T12:43:44.196Z,101623.47
2022-12-04T12:46:14.184Z,101628.13
2022-12-04T12:48:47.215Z,101638.94
2022-12-04T12:51:30.716Z,101631.75
2022-12-04T12:53:58.256Z,101627.44
2022-12-04T12:56:33.240Z,101634.78
2022-12-04T12:59:02.344Z,101635.44
2022-12-04T13:01:39.735Z,101619.09
2022-12-04T13:04:11.132Z,101623.19
2022-12-04T13:06:44.529Z,101627.22
2022-12-04T13:09:18.557Z,101631.09
2022-12-04T13:11:43.053Z,101637.91
2022-12-04T13:14:08.102Z,101639.53
2022-12-04T13:16:38.915Z,101627.09
2022-12-04T13:19:11.123Z,101622.97
2022-12-04T13:21:39.103Z,101623.13
2022-12-04T13:24:56.749Z,101619.84
2022-12-04T13:27:33.607Z,101616.59
2022-12-04T13:30:15.515Z,101622.31
2022-12-04T13:33:27.235Z,101617.59
2022-12-04T13:36:23.234Z,101618.38
2022-12-04T13:39:18.409Z,101623.22
2022-12-04T13:41:42.070Z,101615.63
2022-12-04T13:44:15.175Z,101607.28
2022-12-04T13:46:43.872Z,101602.50
2022-12-04T13:49:26.320Z,101588.19
2022-12-04T13:51:51.045Z,101591.22
2022-12-04T13:54:28.956Z,101579.72
2022-12-04T13:56:55.468Z,101580.06
2022-12-04T13:59:34.575Z,101572.56
2022-12-04T14:02:06.619Z,101564.09
2022-12-04T14:04:36.138Z,101573.56
2022-12-04T14:07:02.620Z,101578.91
2022-12-04T14:09:30.157Z,101574.56
2022-12-04T14:11:59.345Z,101568.19
2022-12-04T14:14:30.125Z,101574.16
2022-12-04T14:16:54.977Z,101565.84
2022-12-04T14:19:33.636Z,101569.94
2022-12-04T14:21:57.287Z,101572.88
2022-12-04T14:24:35.127Z,101565.75
2022-12-04T14:27:14.609Z,101570.13
2022-12-04T14:29:49.371Z,101572.28
2022-12-04T14:32:18.627Z,101568.03
2022-12-04T14:34:43.861Z,101568.94
2022-12-04T14:37:08.164Z,101575.06
2022-12-04T14:39:35.709Z,101589.47
2022-12-04T14:42:09.005Z,101588.31
2022-12-04T14:44:33.391Z,101581.38
2022-12-04T14:47:00.735Z,101584.41
2022-12-04T14:49:38.393Z,101572.19
2022-12-04T14:52:12.529Z,101571.13
2022-12-04T14:54:45.955Z,101572.28
2022-12-04T14:57:25.906Z,101565.81
2022-12-04T14:59:51.823Z,101570.31
2022-12-04T15:02:20.200Z,101575.31
2022-12-04T15:04:46.338Z,101575.66
2022-12-04T15:07:11.543Z,101574.75
2022-12-04T15:09:52.785Z,101574.25
2022-12-04T15:12:37.082Z,101577.59
2022-12-04T15:15:06.034Z,101575.16
2022-12-04T15:17:29.614Z,101576.72
2022-12-04T15:19:53.171Z,101567.66
2022-12-04T15:22:24.528Z,101565.84
2022-12-04T15:24:48.144Z,101569.97
2022-12-04T15:27:14.207Z,101571.16
2022-12-04T15:29:48.107Z,101567.06
2022-12-04T15:32:13.755Z,101572.34
2022-12-04T15:34:43.156Z,101571.75
2022-12-04T15:37:09.833Z,101575.13
2022-12-04T15:39:38.051Z,101568.84
2022-12-04T15:42:17.776Z,101573.63
2022-12-04T15:44:41.448Z,101580.00
2022-12-04T15:47:20.933Z,101577.97
2022-12-04T15:49:44.573Z,101579.47
2022-12-04T15:52:15.460Z,101584.41
2022-12-04T15:54:44.841Z,101587.13
2022-12-04T15:57:20.204Z,101589.06
2022-12-04T15:59:51.014Z,101584.53
2022-12-04T16:02:27.098Z,101593.06
2022-12-04T16:04:50.769Z,101578.94
2022-12-04T16:07:23.475Z,101591.13
2022-12-04T16:10:03.177Z,101592.59
2022-12-04T16:12:30.355Z,101596.72
2022-12-04T16:14:55.362Z,101585.84
2022-12-04T16:17:19.165Z,101588.19
2022-12-04T16:19:43.798Z,101581.88
2022-12-04T16:22:14.684Z,101592.75
2022-12-04T16:24:39.538Z,101588.47
2022-12-04T16:27:17.359Z,101584.63
2022-12-04T16:29:40.913Z,101594.28
2022-12-04T16:32:04.577Z,101584.22
2022-12-04T16:34:28.243Z,101578.13
2022-12-04T16:36:51.737Z,101581.19
2022-12-04T16:39:15.404Z,101587.59
2022-12-04T16:41:38.927Z,101591.03
2022-12-04T16:44:04.210Z,101588.91
2022-12-04T16:46:30.825Z,101588.75
2022-12-04T16:48:54.521Z,101591.34
2022-12-04T16:51:21.175Z,101584.69
2022-12-04T16:53:44.808Z,101582.13
2022-12-04T16:56:10.044Z,101594.72
2022-12-04T16:58:33.621Z,101586.00
2022-12-04T17:00:58.888Z,101590.06
2022-12-04T17:03:27.878Z,101583.47
2022-12-04T17:05:51.537Z,101583.69
2022-12-04T17:08:15.330Z,101574.97
2022-12-04T17:10:38.921Z,101572.69
2022-12-04T17:13:02.499Z,101570.50
2022-12-04T17:15:26.051Z,101572.88
2022-12-04T17:17:51.686Z,101569.03
2022-12-04T17:20:17.672Z,101573.16
2022-12-04T17:22:41.637Z,101563.91
2022-12-04T17:25:06.340Z,101561.13
2022-12-04T17:27:29.969Z,101569.97
2022-12-04T17:29:53.616Z,101573.00
2022-12-04T17:32:17.478Z,101577.91
2022-12-04T17:34:42.569Z,101578.47
2022-12-04T17:37:06.250Z,101574.59
2022-12-04T17:39:29.957Z,101571.97
2022-12-04T17:41:53.538Z,101565.53
2022-12-04T17:44:17.021Z,101577.13
2022-12-04T17:46:40.655Z,101563.41
2022-12-04T17:49:07.298Z,101565.53
2022-12-04T17:51:32.527Z,101562.88
2022-12-04T17:53:56.336Z,101561.19
2022-12-04T17:56:22.354Z,101559.31
2022-12-04T17:58:47.149Z,101559.28
2022-12-04T18:01:13.659Z,101555.03
2022-12-04T18:03:38.372Z,101562.44
2022-12-04T18:06:02.299Z,101562.41
2022-12-04T18:08:28.911Z,101563.78
2022-12-04T18:10:52.532Z,101571.50
2022-12-04T18:13:16.056Z,101563.56
2022-12-04T18:15:39.650Z,101562.19
2022-12-04T18:18:03.221Z,101558.16
2022-12-04T18:20:26.828Z,101565.25
2022-12-04T18:22:50.348Z,101572.94
2022-12-04T18:25:15.311Z,101567.56
2022-12-04T18:27:41.837Z,101573.44
2022-12-04T18:30:07.363Z,101568.84
2022-12-04T18:32:30.863Z,101571.00
2022-12-04T18:34:54.772Z,101565.47
2022-12-04T18:37:18.433Z,101565.09
2022-12-04T18:39:42.197Z,101561.63
2022-12-04T18:42:07.499Z,101564.28
2022-12-04T18:44:31.220Z,101561.84
2022-12-04T18:46:54.795Z,101555.69
2022-12-04T18:49:18.395Z,101560.88
2022-12-04T18:51:48.902Z,101567.00
2022-12-04T18:54:15.682Z,101561.50
2022-12-04T18:56:39.725Z,101556.34
2022-12-04T18:59:08.723Z,101563.91
2022-12-04T19:01:32.339Z,101577.41
2022-12-04T19:03:58.433Z,101577.75
2022-12-04T19:06:22.072Z,101568.88
2022-12-04T19:08:45.783Z,101568.78
2022-12-04T19:11:11.625Z,101571.53
2022-12-04T19:13:37.181Z,101565.22
2022-12-04T19:16:02.207Z,101572.19
2022-12-04T19:18:25.805Z,101579.66
2022-12-04T19:20:49.501Z,101570.28
2022-12-04T19:23:13.229Z,101576.50
2022-12-04T19:25:36.841Z,101583.66
2022-12-04T19:28:02.980Z,101577.78
2022-12-04T19:30:26.941Z,101576.97
2022-12-04T19:32:52.097Z,101578.94
2022-12-04T19:35:15.844Z,101569.53
2022-12-04T19:37:41.907Z,101583.06
2022-12-04T19:40:07.703Z,101579.75
2022-12-04T19:42:31.987Z,101580.44
2022-12-04T19:44:55.515Z,101579.88
2022-12-04T19:47:20.042Z,101576.22
2022-12-04T19:49:44.986Z,101583.69
2022-12-04T19:52:08.531Z,101579.50
2022-12-04T19:54:32.342Z,101574.09
2022-12-04T19:56:55.937Z,101570.38
2022-12-04T19:59:20.888Z,101576.03
2022-12-04T20:01:44.862Z,101576.78
2022-12-04T20:04:10.108Z,101582.06
2022-12-04T20:06:41.814Z,101568.81
2022-12-04T20:09:08.822Z,101574.13
2022-12-04T20:11:33.261Z,101566.72
2022-12-04T20:13:58.114Z,101564.22
2022-12-04T20:16:23.108Z,101563.50
2022-12-04T20:18:47.184Z,101564.81
2022-12-04T20:21:12.076Z,101561.84
2022-12-04T20:23:37.070Z,101565.81
2022-12-04T20:26:06.603Z,101562.66
2022-12-04T20:28:30.192Z,101555.94
2022-12-04T20:30:54.449Z,101554.50
2022-12-04T20:33:18.290Z,101556.03
2022-12-04T20:35:41.847Z,101555.03
2022-12-04T20:38:06.176Z,101545.69
2022-12-04T20:40:31.223Z,101539.28
2022-12-04T20:42:54.859Z,101533.34
2022-12-04T20:45:18.558Z,101535.09
2022-12-04T20:47:42.180Z,101531.72
2022-12-04T20:50:06.603Z,101534.19
2022-12-04T20:52:30.193Z,101538.69
2022-12-04T20:54:53.694Z,101535.38
2022-12-04T20:57:18.697Z,101537.72
2022-12-04T20:59:42.237Z,101529.81
2022-12-04T21:02:06.020Z,101526.91
2022-12-04T21:04:29.661Z,101541.91
2022-12-04T21:06:53.368Z,101543.47
2022-12-04T21:09:20.496Z,101538.66
2022-12-04T21:11:46.937Z,101536.59
2022-12-04T21:14:33.344Z,101539.16
2022-12-04T21:16:57.288Z,101534.22
2022-12-04T21:19:23.702Z,101544.78
2022-12-04T21:21:47.983Z,101549.09
2022-12-04T21:24:14.234Z,101537.22
2022-12-04T21:26:38.117Z,101546.44
2022-12-04T21:29:03.019Z,101546.97
2022-12-04T21:31:29.205Z,101528.91
2022-12-04T21:33:52.798Z,101527.22
2022-12-04T21:36:16.401Z,101528.16
2022-12-04T21:38:41.456Z,101526.75
2022-12-04T21:41:07.157Z,101529.81
2022-12-04T21:43:32.754Z,101525.84
2022-12-04T21:46:07.453Z,101527.59
2022-12-04T21:48:35.613Z,101529.47
2022-12-04T21:50:59.312Z,101524.56
2022-12-04T21:53:23.496Z,101525.94
2022-12-04T21:55:49.535Z,101521.41
2022-12-04T21:58:13.212Z,101516.09
2022-12-04T22:00:36.837Z,101516.38
2022-12-04T22:03:00.546Z,101522.53
2022-12-04T22:05:25.567Z,101518.31
2022-12-04T22:07:49.204Z,101518.72
2022-12-04T22:10:12.776Z,101515.63
2022-12-04T22:12:52.376Z,101517.09
2022-12-04T22:15:16.063Z,101510.31
2022-12-04T22:17:39.623Z,101508.22
2022-12-04T22:20:03.351Z,101506.84
2022-12-04T22:22:28.330Z,101507.28
2022-12-04T22:24:51.949Z,101511.59
2022-12-04T22:27:15.915Z,101509.13
2022-12-04T22:29:50.139Z,101513.25
2022-12-04T22:32:14.360Z,101505.28
2022-12-04T22:34:37.847Z,101511.78
2022-12-04T22:37:01.406Z,101504.09
2022-12-04T22:39:26.553Z,101499.88
2022-12-04T22:41:50.145Z,101504.44
2022-12-04T22:44:13.651Z,101499.91
2022-12-04T22:46:37.275Z,101497.56
2022-12-04T22:49:01.554Z,101502.25
2022-12-04T22:51:25.191Z,101494.00
2022-12-04T22:53:50.778Z,101499.97
2022-12-04T22:56:18.234Z,101493.56
2022-12-04T22:58:42.117Z,101490.53
2022-12-04T23:01:11.672Z,101488.78
2022-12-04T23:03:35.647Z,101491.94
2022-12-04T23:06:02.128Z,101487.13
2022-12-04T23:08:25.754Z,101489.91
2022-12-04T23:10:49.309Z,101486.22
2022-12-04T23:13:14.403Z,101487.81
2022-12-04T23:15:39.042Z,101483.34
2022-12-04T23:18:02.536Z,101488.28
2022-12-04T23:20:26.227Z,101481.13
2022-12-04T23:22:54.657Z,101482.59
2022-12-04T23:25:18.464Z,101475.03
2022-12-04T23:27:42.007Z,101480.81
2022-12-04T23:30:09.388Z,101469.66
2022-12-04T23:32:33.158Z,101469.66
2022-12-04T23:34:56.788Z,101468.88
2022-12-04T23:37:20.709Z,101472.34
2022-12-04T23:39:44.282Z,101471.38
2022-12-04T23:42:07.933Z,101477.78
2022-12-04T23:44:31.701Z,101477.91
2022-12-04T23:46:56.669Z,101471.41
2022-12-04T23:49:20.320Z,101474.97
2022-12-04T23:51:43.803Z,101463.44
2022-12-04T23:54:07.723Z,101471.94
2022-12-04T23:56:32.526Z,101469.38
2022-12-04T23:58:58.548Z,101471.22
